createdAt,value
2018-08-25T07:42:15.549Z,49.10
2018-08-25T07:44:43.077Z,47.90
2018-08-25T07:47:10.596Z,47.70
2018-08-25T07:49:38.215Z,47.60
2018-08-25T07:52:05.812Z,47.40
2018-08-25T07:54:33.335Z,47.20
2018-08-25T07:57:01.029Z,47.00
2018-08-25T07:59:28.556Z,47.80
2018-08-25T08:01:56.064Z,47.40
2018-08-25T08:04:23.607Z,47.30
2018-08-25T08:06:51.116Z,47.40
2018-08-25T08:09:18.747Z,47.10
2018-08-25T08:11:46.300Z,46.60
2018-08-25T08:14:13.956Z,46.40
2018-08-25T08:16:41.454Z,46.70
2018-08-25T08:19:09.013Z,47.20
2018-08-25T08:21:36.525Z,46.30
2018-08-25T08:24:04.300Z,46.10
2018-08-25T08:26:31.801Z,46.30
2018-08-25T08:28:59.328Z,46.70
2018-08-25T08:31:26.823Z,47.00
2018-08-25T08:33:54.338Z,47.10
2018-08-25T08:36:21.841Z,46.80
2018-08-25T08:38:49.373Z,47.60
2018-08-25T08:41:16.880Z,47.10
2018-08-25T08:43:44.384Z,46.90
2018-08-25T08:46:11.938Z,46.50
2018-08-25T08:48:39.445Z,46.60
2018-08-25T08:51:07.341Z,46.70
2018-08-25T08:53:34.844Z,46.40
2018-08-25T08:56:02.363Z,46.50
2018-08-25T08:58:29.865Z,46.50
2018-08-25T09:00:57.388Z,46.20
2018-08-25T09:03:24.944Z,46.20
2018-08-25T09:05:52.509Z,46.30
2018-08-25T09:08:20.092Z,46.50
2018-08-25T09:10:47.803Z,46.80
2018-08-25T09:13:15.304Z,47.00
2018-08-25T09:15:42.830Z,48.20
2018-08-25T09:18:10.349Z,48.20
2018-08-25T09:20:37.973Z,47.80
2018-08-25T09:23:05.576Z,47.20
2018-08-25T09:25:33.103Z,47.10
2018-08-25T09:28:00.763Z,47.10
2018-08-25T09:30:28.298Z,47.10
2018-08-25T09:32:55.806Z,47.20
2018-08-25T09:35:23.324Z,47.40
2018-08-25T09:37:50.833Z,47.40
2018-08-25T09:40:18.364Z,48.10
2018-08-25T09:42:45.876Z,47.20
2018-08-25T09:45:13.401Z,46.90
2018-08-25T09:47:40.903Z,46.20
2018-08-25T09:50:08.437Z,45.90
2018-08-25T09:52:36.316Z,44.90
2018-08-25T09:55:03.863Z,44.70
2018-08-25T09:57:31.364Z,44.20
2018-08-25T09:59:58.893Z,43.70
2018-08-25T10:02:26.385Z,43.50
2018-08-25T10:04:53.880Z,43.50
2018-08-25T10:07:21.740Z,43.30
2018-08-25T10:09:49.373Z,43.40
2018-08-25T10:12:18.107Z,44.10
2018-08-25T10:14:45.709Z,43.70
2018-08-25T10:17:13.305Z,44.40
2018-08-25T10:19:40.848Z,43.00
2018-08-25T10:22:08.352Z,42.20
2018-08-25T10:24:35.936Z,41.70
2018-08-25T10:27:03.456Z,42.00
2018-08-25T10:29:30.956Z,41.90
2018-08-25T10:31:58.466Z,42.00
2018-08-25T10:34:25.972Z,42.00
2018-08-25T14:31:06.336Z,39.50
2018-08-25T14:33:33.840Z,39.90
2018-08-25T14:36:01.345Z,40.30
2018-08-25T14:38:28.877Z,40.80
2018-08-25T14:40:56.352Z,41.00
2018-08-25T14:43:23.861Z,41.10
2018-08-25T14:45:51.572Z,41.30
2018-08-25T14:48:19.071Z,41.00
2018-08-25T14:50:46.577Z,40.70
2018-08-25T14:53:14.116Z,40.70
2018-08-25T14:55:42.620Z,40.60
2018-08-25T14:58:10.196Z,40.50
2018-08-25T15:00:38.267Z,40.30
2018-08-25T15:03:05.788Z,40.30
2018-08-25T15:05:33.293Z,40.90
2018-08-25T15:08:00.834Z,41.00
2018-08-25T15:10:28.991Z,41.00
2018-08-25T15:12:56.976Z,41.30
2018-08-25T15:15:24.496Z,41.40
2018-08-25T15:17:52.029Z,41.50
2018-08-25T15:20:19.533Z,41.40
2018-08-25T15:22:47.068Z,41.60
2018-08-25T15:25:14.599Z,41.70
2018-08-25T15:27:42.183Z,41.80
2018-08-25T15:30:09.681Z,42.00
2018-08-25T15:32:37.185Z,42.10
2018-08-25T15:35:04.988Z,41.90
2018-08-25T15:37:32.658Z,42.10
2018-08-25T15:40:00.175Z,42.10
2018-08-25T15:42:27.675Z,41.80
2018-08-25T15:44:55.181Z,41.50
2018-08-25T15:47:22.680Z,41.60
2018-08-25T15:49:50.208Z,41.20
2018-08-25T15:52:17.823Z,41.30
2018-08-25T15:54:45.252Z,41.40
2018-08-25T15:57:12.783Z,41.90
2018-08-25T15:59:40.317Z,42.10
2018-08-25T16:02:07.823Z,42.90
2018-08-25T16:04:35.362Z,42.60
2018-08-25T16:07:03.252Z,41.80
2018-08-25T16:09:30.762Z,40.90
2018-08-25T16:11:58.426Z,40.50
2018-08-25T16:14:26.136Z,41.10
2018-08-25T16:16:53.653Z,41.30
2018-08-25T16:19:21.366Z,41.50
2018-08-25T16:21:48.798Z,42.20
2018-08-25T16:24:16.432Z,42.60
2018-08-25T16:26:43.912Z,42.80
2018-08-25T16:29:11.516Z,43.20
2018-08-25T16:31:39.031Z,43.40
2018-08-25T16:34:06.574Z,44.30
2018-08-25T16:36:34.084Z,43.70
2018-08-25T16:39:01.640Z,43.90
2018-08-25T16:41:29.145Z,44.70
2018-08-25T16:43:56.848Z,44.20
2018-08-25T16:46:24.376Z,44.30
2018-08-25T16:48:51.876Z,44.40
2018-08-25T16:51:19.388Z,44.50
2018-08-25T16:53:46.902Z,44.50
2018-08-25T16:56:14.425Z,44.80
2018-08-25T16:58:41.928Z,45.10
2018-08-25T17:01:09.453Z,45.10
2018-08-25T17:03:36.974Z,45.20
2018-08-25T17:06:04.495Z,45.40
2018-08-25T17:08:32.006Z,45.50
2018-08-25T17:10:59.534Z,45.60
2018-08-25T17:13:27.042Z,45.80
2018-08-25T17:15:54.572Z,45.90
2018-08-25T17:18:22.075Z,46.70
2018-08-25T17:20:49.598Z,46.10
2018-08-25T17:23:17.104Z,46.20
2018-08-25T17:25:44.656Z,46.30
2018-08-25T17:28:12.160Z,46.40
2018-08-25T17:30:39.725Z,46.50
2018-08-25T17:33:07.331Z,46.50
2018-08-25T17:35:35.080Z,46.50
2018-08-25T17:38:02.611Z,46.60
2018-08-25T17:40:30.129Z,46.70
2018-08-25T17:42:57.635Z,46.80
2018-08-25T17:45:25.162Z,46.70
2018-08-25T17:47:52.656Z,46.70
2018-08-25T17:50:20.176Z,46.70
2018-08-25T17:52:47.676Z,46.80
2018-08-25T17:55:15.262Z,46.90
2018-08-25T17:57:42.952Z,46.90
2018-08-25T18:00:10.324Z,47.70
2018-08-25T18:02:37.837Z,46.90
2018-08-25T18:05:05.393Z,47.00
2018-08-25T18:07:32.900Z,47.10
2018-08-25T18:10:00.440Z,47.10
2018-08-25T18:12:27.972Z,47.10
2018-08-25T18:14:55.476Z,47.10
2018-08-25T18:17:23.044Z,47.10
2018-08-25T18:19:50.510Z,47.10
2018-08-25T18:22:18.003Z,47.20
2018-08-25T18:24:45.508Z,47.20
2018-08-25T18:27:13.097Z,47.30
2018-08-25T18:29:40.651Z,47.30
2018-08-25T18:32:08.240Z,47.30
2018-08-25T18:34:35.668Z,47.40
2018-08-25T18:37:03.181Z,47.30
2018-08-25T18:39:30.688Z,47.30
2018-08-25T18:41:58.197Z,47.40
2018-08-25T18:44:25.701Z,47.40
2018-08-25T18:46:53.225Z,47.30
2018-08-25T18:49:20.729Z,47.30
2018-08-25T18:51:48.257Z,47.40
2018-08-25T18:54:15.792Z,47.40
2018-08-25T18:56:43.301Z,47.40
2018-08-25T18:59:10.947Z,47.50
2018-08-25T19:01:38.519Z,47.50
2018-08-25T19:04:06.033Z,47.30
2018-08-25T19:06:33.551Z,47.40
2018-08-25T19:09:01.069Z,47.30
2018-08-25T19:11:28.600Z,47.90
2018-08-25T19:13:56.316Z,47.40
2018-08-25T19:16:23.847Z,47.40
2018-08-25T19:18:51.364Z,47.50
2018-08-25T19:21:18.915Z,47.40
2018-08-25T19:23:46.555Z,47.50
2018-08-25T19:26:14.104Z,47.50
2018-08-25T19:28:41.620Z,47.40
2018-08-25T19:31:09.161Z,47.50
2018-08-25T19:33:36.665Z,47.40
2018-08-25T19:36:04.191Z,47.40
2018-08-25T19:38:31.708Z,47.50
2018-08-25T19:40:59.237Z,47.40
2018-08-25T19:43:26.740Z,47.40
2018-08-25T19:45:54.281Z,47.40
2018-08-25T19:48:21.801Z,47.40
2018-08-25T19:50:49.303Z,47.30
2018-08-25T19:53:16.814Z,47.40
2018-08-25T19:55:44.489Z,47.40
2018-08-25T19:58:11.997Z,47.40
2018-08-25T20:00:39.500Z,47.40
2018-08-25T20:03:07.003Z,47.60
2018-08-25T20:05:34.663Z,47.60
2018-08-25T20:08:02.062Z,47.70
2018-08-25T20:10:29.569Z,48.30
2018-08-25T20:12:57.069Z,47.60
2018-08-25T20:15:24.720Z,47.60
2018-08-25T20:17:52.192Z,47.60
2018-08-25T20:20:19.784Z,47.60
2018-08-25T20:22:47.292Z,47.70
2018-08-25T20:25:14.801Z,47.60
2018-08-25T20:27:42.317Z,47.60
2018-08-25T20:30:09.914Z,47.70
2018-08-25T20:32:37.393Z,47.70
2018-08-25T20:35:05.168Z,47.60
2018-08-25T20:37:32.685Z,47.50
2018-08-25T20:40:00.313Z,47.50
2018-08-25T20:42:27.837Z,47.50
2018-08-25T20:44:55.368Z,47.50
2018-08-25T20:47:22.900Z,47.70
2018-08-25T20:49:50.400Z,47.80
2018-08-25T20:52:17.988Z,48.10
2018-08-25T20:54:49.106Z,47.90
2018-08-25T20:57:20.080Z,48.30
2018-08-25T20:59:48.885Z,48.20
2018-08-25T21:02:23.184Z,47.70
2018-08-25T21:04:50.692Z,47.30
2018-08-25T21:07:18.207Z,47.10
2018-08-25T21:09:45.721Z,46.80
2018-08-25T21:12:13.244Z,47.20
2018-08-25T21:14:40.751Z,47.20
2018-08-25T21:17:08.972Z,47.30
2018-08-25T21:19:37.918Z,47.60
2018-08-25T21:22:05.590Z,47.60
2018-08-25T21:24:33.237Z,48.50
2018-08-25T21:27:00.744Z,47.80
2018-08-25T21:29:28.248Z,47.30
2018-08-25T21:31:55.767Z,47.00
2018-08-25T21:34:23.299Z,46.90
2018-08-25T21:36:50.799Z,47.60
2018-08-25T21:39:18.304Z,47.10
2018-08-25T21:41:45.824Z,46.90
2018-08-25T21:44:13.330Z,47.30
